• Join FlightAware (Why Join?)
  • Login
  • US Flag 
02:24AM EDT


 

Airport Tracker/Info


-or-


 

Live Flight TrackerFlight Track Log ✈ UAL4202 ✈ 13-Apr-2013 ✈ KBOS - KCLE

Flight Track Log - Related Links

Times and Time Zones

All times are in EDT time to prevent confusion due to time zone crossing. See the UAL4202 flight status page for this flight to view local times or setup timezone preferences in your user account.

Time Position Orientation Groundspeed Altitude Reporting Facility
EDT Latitude Longitude Course Direction KTS MPH feet Rate Location/Type
11:00AM 42.3667 -70.9667 90° East 170 196 800  Level KA90
11:01AM 42.3667 -70.9000 90° East 175 201 3,000 1,680 Climbing KA90
11:02AM 42.4033 -70.8094 61° Northeast 254 292 5,000 1,680 Climbing Boston Center
11:03AM 42.4694 -70.7739 22° Northeast 243 280 7,100 2,280 Climbing Boston Center
11:04AM 42.5306 -70.8256 328° Northwest 199 229 9,600 1,980 Climbing Boston Center
11:05AM 42.5692 -70.9036 304° West 215 247 11,100 1,260 Climbing Boston Center
11:07AM 42.6267 -71.0008 309° West 280 322 12,200 1,080 Climbing Boston Center
11:07AM 42.6758 -71.0875 308° West 317 365 13,300 1,200 Climbing Boston Center
11:08AM 42.7353 -71.1936 307° West 322 371 14,600 1,260 Climbing Boston Center
11:09AM 42.7781 -71.2861 302° West 327 376 15,900 1,320 Climbing Boston Center
11:10AM 42.7939 -71.4158 279° West 316 364 17,300 1,380 Climbing Boston Center
11:12AM 42.8053 -71.5203 278° West 316 364 18,700 1,260 Climbing Boston Center
11:13AM 42.8164 -71.6392 277° West 316 364 19,900 1,200 Climbing Boston Center
11:14AM 42.8278 -71.7606 277° West 316 364 21,200 1,320 Climbing Boston Center
11:14AM 42.8389 -71.8822 277° West 321 369 22,600 1,320 Climbing Boston Center
11:15AM 42.8497 -72.0011 277° West 321 369 23,900 1,260 Climbing Boston Center
11:17AM 42.8625 -72.1228 278° West 321 369 25,200 1,260 Climbing Boston Center
11:17AM 42.8711 -72.2417 276° West 321 369 26,500 1,320 Climbing Boston Center
11:18AM 42.8881 -72.3581 281° West 321 369 27,900 1,320 Climbing Boston Center
11:19AM 42.9006 -72.4714 279° West 315 362 29,200 1,260 Climbing Boston Center
11:20AM 42.9089 -72.5847 276° West 310 357 30,500 1,380 Climbing Boston Center
11:21AM 42.9128 -72.7067 273° West 304 350 32,000 1,380 Climbing Boston Center
11:23AM 42.9208 -72.8172 276° West 299 344 33,300 960 Climbing Boston Center
11:23AM 42.9308 -72.9222 277° West 294 338 34,000 300 Climbing Boston Center
11:24AM 42.9408 -73.0244 278° West 294 338 34,000  Level Boston Center
11:26AM 42.9525 -73.1492 277° West 302 348 34,000  Level Boston Center
11:26AM 42.9622 -73.2769 276° West 329 379 34,000  Level Boston Center
11:28AM 42.9694 -73.4189 274° West 337 388 34,000  Level Boston Center
11:28AM 42.9828 -73.5469 278° West 347 399 34,000 180 Level Boston Center
11:30AM 42.9897 -73.6747 274° West 347 399 34,400 600 Climbing Boston Center
11:31AM 43.0008 -73.8000 277° West 347 399 35,300 720 Climbing Boston Center
11:31AM 43.0097 -73.9194 276° West 347 399 35,900 300 Climbing Boston Center
11:32AM 43.0206 -74.0503 277° West 342 394 36,000  Climbing Boston Center
11:33AM 43.0294 -74.1556 277° West 347 399 36,000  Level Boston Center
11:35AM 43.0394 -74.3178 275° West 354 407 36,000  Level Boston Center
11:35AM 43.0494 -74.4544 276° West 360 414 36,000  Level Boston Center
11:36AM 43.0594 -74.5883 276° West 360 414 36,000  Level Boston Center
11:37AM 43.0694 -74.7194 276° West 360 414 36,000  Level Boston Center
11:38AM 43.0772 -74.8533 275° West 355 409 36,000  Level Boston Center
11:39AM 43.0847 -74.9875 274° West 355 409 36,000  Level Boston Center
11:40AM 43.0961 -75.1217 277° West 355 409 36,000  Level Boston Center
11:41AM 43.1056 -75.2583 275° West 355 409 36,000  Level Boston Center
11:42AM 43.1108 -75.3781 273° West 355 409 36,000 -60 Level Boston Center
11:44AM 43.1231 -75.5381 276° West 355 409 35,900  Descending Boston Center
11:45AM 43.1300 -75.6722 274° West 355 409 36,000  Climbing Boston Center
11:46AM 43.1386 -75.8036 275° West 350 403 35,900  Descending Boston Center
11:47AM 43.1472 -75.9350 275° West 350 403 36,000  Climbing Boston Center
11:48AM 43.1556 -76.0692 275° West 350 403 36,000  Level Boston Center
11:49AM 43.1389 -76.2808 264° West 347 399 36,000  Level Cleveland Center
11:50AM 43.1014 -76.3972 246° West 341 392 36,000  Level Cleveland Center
11:51AM 43.0661 -76.5161 248° West 341 392 36,000  Level Cleveland Center
11:52AM 43.0286 -76.6381 247° West 346 398 36,000  Level Cleveland Center
11:53AM 42.9908 -76.7539 246° West 346 398 36,000  Level Cleveland Center
11:54AM 42.9553 -76.8753 248° West 341 392 36,000  Level Cleveland Center
11:55AM 42.9172 -76.9939 246° West 341 392 36,000  Level Cleveland Center
11:56AM 42.8792 -77.1150 247° West 341 392 36,000  Level Cleveland Center
11:57AM 42.8431 -77.2331 247° West 341 392 36,000  Level Cleveland Center
11:58AM 42.8069 -77.3511 247° West 341 392 36,000  Level Cleveland Center
11:59AM 42.7686 -77.4719 247° West 341 392 36,000  Level Cleveland Center
12:00PM 42.7300 -77.5897 246° West 341 392 36,000  Level Cleveland Center
12:01PM 42.6953 -77.7044 248° West 341 392 36,000  Level Cleveland Center
12:02PM 42.6547 -77.8333 247° West 341 392 36,000  Level Cleveland Center
12:03PM 42.6156 -77.9481 245° Southwest 341 392 36,000 -60 Level Cleveland Center
12:04PM 42.5786 -78.0622 246° West 336 387 35,900 -600 Descending Cleveland Center
12:05PM 42.5417 -78.1822 247° West 341 392 34,900 -960 Descending Cleveland Center
12:06PM 42.5042 -78.2964 246° West 341 392 34,000 -480 Descending Cleveland Center
12:07PM 42.4669 -78.4103 246° West 336 387 34,000  Level Cleveland Center
12:08PM 42.4292 -78.5211 245° Southwest 336 387 34,000  Level Cleveland Center
12:09PM 42.3917 -78.6406 247° West 336 387 34,000  Level Cleveland Center
12:10PM 42.3542 -78.7569 246° West 341 392 34,000  Level Cleveland Center
12:11PM 42.3142 -78.8731 245° Southwest 341 392 34,000  Level Cleveland Center
12:12PM 42.2719 -78.9894 244° Southwest 341 392 34,000  Level Cleveland Center
12:13PM 42.2342 -79.1081 247° West 341 392 34,000 -60 Level Cleveland Center
12:14PM 42.1978 -79.2156 245° Southwest 341 392 33,900 -600 Descending Cleveland Center
12:15PM 42.1575 -79.3283 244° Southwest 341 392 32,900 -1,200 Descending Cleveland Center
12:16PM 42.1211 -79.4411 247° West 336 387 31,600 -1,500 Descending Cleveland Center
12:17PM 42.0867 -79.5453 246° West 323 372 30,000 -1,800 Descending Cleveland Center
12:18PM 42.0500 -79.6519 245° Southwest 317 365 28,100 -1,860 Descending Cleveland Center
12:19PM 42.0114 -79.7644 245° Southwest 325 374 26,300 -1,800 Descending Cleveland Center
12:20PM 41.9703 -79.8822 245° Southwest 336 387 24,500 -1,620 Descending Cleveland Center
12:21PM 41.9253 -80.0111 245° Southwest 343 395 23,100 -1,260 Descending Cleveland Center
12:22PM 41.8839 -80.1231 244° Southwest 343 395 22,000 -600 Descending Cleveland Center
12:23PM 41.8469 -80.2347 246° West 336 387 22,000 -600 Level Cleveland Center
12:24PM 41.8075 -80.3464 245° Southwest 330 380 20,800 -1,620 Descending Cleveland Center
12:25PM 41.7681 -80.4578 245° Southwest 330 380 18,800 -2,100 Descending Cleveland Center
12:26PM 41.7306 -80.5636 245° Southwest 325 374 16,700 -1,920 Descending Cleveland Center
12:27PM 41.6972 -80.6583 245° Southwest 320 368 15,000 -2,040 Descending Cleveland Center
12:28PM 41.6658 -80.7528 246° West 308 354 13,100 -2,100 Descending Cleveland Center
12:29PM 41.6239 -80.8581 242° Southwest 317 365 11,300 -1,440 Descending Cleveland Center
12:30PM 41.5883 -80.9772 248° West 320 368 10,000 -660 Descending Cleveland Center
12:31PM 41.5775 -81.0883 263° West 308 354 10,000  Level Cleveland Center
12:32PM 41.5686 -81.2019 264° West 312 359 10,000 -240 Level Cleveland Center
12:33PM 41.5597 -81.2908 262° West 213 245 9,600 -420 Descending Cleveland Center
12:33PM 41.5597 -81.2908 262° West 275 316 9,600 -1,800 Level Cleveland Center
12:34PM 41.5508 -81.3739 262° West 209 241 7,800 -1,680 Descending Cleveland Center
12:35PM 41.5439 -81.4514 263° West 237 273 6,500 -1,260 Descending Cleveland Center
12:36PM 41.5347 -81.5486 263° West 230 265 5,300 -1,080 Descending Cleveland Center
12:37PM 41.5278 -81.6314 264° West 224 258 4,300 -840 Descending Cleveland Center
12:38PM 41.5125 -81.7006 254° West 217 250 3,800 -840 Descending Cleveland Center
12:39PM 41.4744 -81.7525 226° Southwest 150 173 2,700 -840 Descending Cleveland Center
12:40PM 41.4533 -81.7883 232° Southwest 111 128 2,100 -660 Descending Cleveland Center
12:42PM 41.4194 -81.8375 227° Southwest 130 150 1,100 -720 Descending Cleveland Center